sensor_id;sensor_type;location;lat;lon;timestamp;P1;durP1;ratioP1;P2;durP2;ratioP2
39078;SDS011;24829;49.208;12.080;2024-01-07T00:00:02;13.77;;;7.75;;
39078;SDS011;24829;49.208;12.080;2024-01-07T00:02:28;14.32;;;8.55;;
39078;SDS011;24829;49.208;12.080;2024-01-07T00:04:55;13.13;;;7.93;;
39078;SDS011;24829;49.208;12.080;2024-01-07T00:07:21;15.60;;;8.20;;
39078;SDS011;24829;49.208;12.080;2024-01-07T00:09:47;16.23;;;8.70;;
39078;SDS011;24829;49.208;12.080;2024-01-07T00:12:12;14.00;;;8.70;;
39078;SDS011;24829;49.208;12.080;2024-01-07T00:14:38;12.68;;;8.30;;
39078;SDS011;24829;49.208;12.080;2024-01-07T00:17:04;15.55;;;10.30;;
39078;SDS011;24829;49.208;12.080;2024-01-07T00:19:29;15.18;;;9.50;;
39078;SDS011;24829;49.208;12.080;2024-01-07T00:22:00;17.20;;;8.80;;
39078;SDS011;24829;49.208;12.080;2024-01-07T00:24:26;16.40;;;9.48;;
39078;SDS011;24829;49.208;12.080;2024-01-07T00:26:53;17.20;;;10.40;;
39078;SDS011;24829;49.208;12.080;2024-01-07T00:29:19;12.23;;;8.25;;
39078;SDS011;24829;49.208;12.080;2024-01-07T00:31:45;19.33;;;9.43;;
39078;SDS011;24829;49.208;12.080;2024-01-07T00:34:11;14.98;;;8.77;;
39078;SDS011;24829;49.208;12.080;2024-01-07T00:36:36;16.30;;;8.73;;
39078;SDS011;24829;49.208;12.080;2024-01-07T00:39:02;12.70;;;8.43;;
39078;SDS011;24829;49.208;12.080;2024-01-07T00:41:28;15.60;;;10.07;;
39078;SDS011;24829;49.208;12.080;2024-01-07T00:43:55;15.60;;;8.25;;
39078;SDS011;24829;49.208;12.080;2024-01-07T00:46:20;15.43;;;8.60;;
39078;SDS011;24829;49.208;12.080;2024-01-07T00:48:46;15.77;;;8.70;;
39078;SDS011;24829;49.208;12.080;2024-01-07T00:51:12;14.95;;;8.13;;
39078;SDS011;24829;49.208;12.080;2024-01-07T00:53:37;18.38;;;9.18;;
39078;SDS011;24829;49.208;12.080;2024-01-07T00:56:03;12.25;;;8.07;;
39078;SDS011;24829;49.208;12.080;2024-01-07T00:58:29;17.65;;;10.25;;
39078;SDS011;24829;49.208;12.080;2024-01-07T01:00:55;14.98;;;8.18;;
39078;SDS011;24829;49.208;12.080;2024-01-07T01:03:20;12.32;;;7.97;;
39078;SDS011;24829;49.208;12.080;2024-01-07T01:05:46;16.17;;;8.15;;
39078;SDS011;24829;49.208;12.080;2024-01-07T01:08:11;15.23;;;8.88;;
39078;SDS011;24829;49.208;12.080;2024-01-07T01:10:37;12.63;;;8.38;;
39078;SDS011;24829;49.208;12.080;2024-01-07T01:13:03;13.90;;;8.60;;
39078;SDS011;24829;49.208;12.080;2024-01-07T01:15:29;15.57;;;9.43;;
39078;SDS011;24829;49.208;12.080;2024-01-07T01:17:54;18.05;;;8.68;;
39078;SDS011;24829;49.208;12.080;2024-01-07T01:20:20;13.35;;;8.35;;
39078;SDS011;24829;49.208;12.080;2024-01-07T01:22:45;20.55;;;9.25;;
39078;SDS011;24829;49.208;12.080;2024-01-07T01:25:11;12.13;;;7.90;;
39078;SDS011;24829;49.208;12.080;2024-01-07T01:27:37;13.35;;;8.40;;
39078;SDS011;24829;49.208;12.080;2024-01-07T01:30:02;12.20;;;8.40;;
39078;SDS011;24829;49.208;12.080;2024-01-07T01:32:28;16.63;;;10.18;;
39078;SDS011;24829;49.208;12.080;2024-01-07T01:34:54;11.90;;;8.68;;
39078;SDS011;24829;49.208;12.080;2024-01-07T01:37:19;14.77;;;8.60;;
39078;SDS011;24829;49.208;12.080;2024-01-07T01:39:45;15.65;;;8.88;;
39078;SDS011;24829;49.208;12.080;2024-01-07T01:42:11;14.40;;;9.18;;
39078;SDS011;24829;49.208;12.080;2024-01-07T01:44:36;17.38;;;9.60;;
39078;SDS011;24829;49.208;12.080;2024-01-07T01:47:02;19.88;;;9.32;;
39078;SDS011;24829;49.208;12.080;2024-01-07T01:49:28;12.95;;;8.70;;
39078;SDS011;24829;49.208;12.080;2024-01-07T01:51:54;16.08;;;10.00;;
39078;SDS011;24829;49.208;12.080;2024-01-07T01:54:20;18.25;;;8.88;;
39078;SDS011;24829;49.208;12.080;2024-01-07T01:56:46;18.55;;;8.95;;
39078;SDS011;24829;49.208;12.080;2024-01-07T01:59:14;14.02;;;8.60;;
39078;SDS011;24829;49.208;12.080;2024-01-07T02:01:40;18.17;;;10.55;;
39078;SDS011;24829;49.208;12.080;2024-01-07T02:04:06;15.52;;;9.45;;
39078;SDS011;24829;49.208;12.080;2024-01-07T02:06:33;16.98;;;9.07;;
39078;SDS011;24829;49.208;12.080;2024-01-07T02:08:59;17.17;;;10.68;;
39078;SDS011;24829;49.208;12.080;2024-01-07T02:11:25;16.30;;;9.73;;
39078;SDS011;24829;49.208;12.080;2024-01-07T02:13:50;18.60;;;10.10;;
39078;SDS011;24829;49.208;12.080;2024-01-07T02:16:16;15.55;;;10.65;;
39078;SDS011;24829;49.208;12.080;2024-01-07T02:18:43;15.38;;;10.00;;
39078;SDS011;24829;49.208;12.080;2024-01-07T02:21:10;16.67;;;10.43;;
39078;SDS011;24829;49.208;12.080;2024-01-07T02:23:37;18.23;;;11.10;;
39078;SDS011;24829;49.208;12.080;2024-01-07T02:26:03;16.42;;;10.95;;
39078;SDS011;24829;49.208;12.080;2024-01-07T02:28:29;16.58;;;10.95;;
39078;SDS011;24829;49.208;12.080;2024-01-07T02:30:55;17.63;;;9.75;;
39078;SDS011;24829;49.208;12.080;2024-01-07T02:33:21;19.92;;;11.48;;
39078;SDS011;24829;49.208;12.080;2024-01-07T02:35:46;17.38;;;11.50;;
39078;SDS011;24829;49.208;12.080;2024-01-07T02:38:12;19.77;;;12.10;;
39078;SDS011;24829;49.208;12.080;2024-01-07T02:40:38;21.30;;;11.38;;
39078;SDS011;24829;49.208;12.080;2024-01-07T02:43:03;22.95;;;10.65;;
39078;SDS011;24829;49.208;12.080;2024-01-07T02:45:29;21.38;;;11.30;;
39078;SDS011;24829;49.208;12.080;2024-01-07T02:47:55;18.20;;;12.52;;
39078;SDS011;24829;49.208;12.080;2024-01-07T02:50:20;17.98;;;10.93;;
39078;SDS011;24829;49.208;12.080;2024-01-07T02:52:46;22.15;;;12.93;;
39078;SDS011;24829;49.208;12.080;2024-01-07T02:55:11;18.58;;;12.38;;
39078;SDS011;24829;49.208;12.080;2024-01-07T02:57:37;22.15;;;11.98;;
39078;SDS011;24829;49.208;12.080;2024-01-07T03:00:03;17.98;;;11.98;;
39078;SDS011;24829;49.208;12.080;2024-01-07T03:02:30;22.63;;;12.20;;
39078;SDS011;24829;49.208;12.080;2024-01-07T03:04:55;22.15;;;12.98;;
39078;SDS011;24829;49.208;12.080;2024-01-07T03:07:21;20.40;;;12.48;;
39078;SDS011;24829;49.208;12.080;2024-01-07T03:09:47;22.50;;;12.20;;
39078;SDS011;24829;49.208;12.080;2024-01-07T03:12:14;22.52;;;12.68;;
39078;SDS011;24829;49.208;12.080;2024-01-07T03:14:40;19.20;;;10.90;;
39078;SDS011;24829;49.208;12.080;2024-01-07T03:17:06;23.52;;;13.48;;
39078;SDS011;24829;49.208;12.080;2024-01-07T03:19:32;22.00;;;12.27;;
39078;SDS011;24829;49.208;12.080;2024-01-07T03:21:58;22.10;;;12.13;;
39078;SDS011;24829;49.208;12.080;2024-01-07T03:24:24;20.13;;;11.90;;
39078;SDS011;24829;49.208;12.080;2024-01-07T03:26:49;20.92;;;11.85;;
39078;SDS011;24829;49.208;12.080;2024-01-07T03:29:15;21.88;;;13.13;;
39078;SDS011;24829;49.208;12.080;2024-01-07T03:31:40;21.35;;;11.85;;
39078;SDS011;24829;49.208;12.080;2024-01-07T03:34:06;21.88;;;12.68;;
39078;SDS011;24829;49.208;12.080;2024-01-07T03:36:32;22.60;;;12.05;;
39078;SDS011;24829;49.208;12.080;2024-01-07T03:38:57;22.13;;;12.63;;
39078;SDS011;24829;49.208;12.080;2024-01-07T03:41:23;20.73;;;12.13;;
39078;SDS011;24829;49.208;12.080;2024-01-07T03:43:49;19.77;;;11.15;;
39078;SDS011;24829;49.208;12.080;2024-01-07T03:46:15;20.95;;;10.90;;
39078;SDS011;24829;49.208;12.080;2024-01-07T03:48:41;17.50;;;9.93;;
39078;SDS011;24829;49.208;12.080;2024-01-07T03:51:07;16.65;;;9.13;;
39078;SDS011;24829;49.208;12.080;2024-01-07T03:53:33;16.98;;;10.05;;
39078;SDS011;24829;49.208;12.080;2024-01-07T03:55:59;14.88;;;9.30;;
39078;SDS011;24829;49.208;12.080;2024-01-07T03:58:25;16.90;;;8.82;;
39078;SDS011;24829;49.208;12.080;2024-01-07T04:00:50;19.13;;;10.93;;
39078;SDS011;24829;49.208;12.080;2024-01-07T04:03:16;17.00;;;9.85;;
39078;SDS011;24829;49.208;12.080;2024-01-07T04:05:41;15.95;;;9.77;;
39078;SDS011;24829;49.208;12.080;2024-01-07T04:08:10;16.20;;;9.40;;
39078;SDS011;24829;49.208;12.080;2024-01-07T04:10:37;18.67;;;9.77;;
39078;SDS011;24829;49.208;12.080;2024-01-07T04:13:03;15.20;;;9.30;;
39078;SDS011;24829;49.208;12.080;2024-01-07T04:15:29;18.38;;;10.02;;
39078;SDS011;24829;49.208;12.080;2024-01-07T04:17:55;15.93;;;9.77;;
39078;SDS011;24829;49.208;12.080;2024-01-07T04:20:21;15.80;;;9.27;;
39078;SDS011;24829;49.208;12.080;2024-01-07T04:22:46;17.58;;;9.68;;
39078;SDS011;24829;49.208;12.080;2024-01-07T04:25:12;18.45;;;9.88;;
39078;SDS011;24829;49.208;12.080;2024-01-07T04:27:38;17.92;;;9.50;;
39078;SDS011;24829;49.208;12.080;2024-01-07T04:30:04;15.40;;;9.60;;
39078;SDS011;24829;49.208;12.080;2024-01-07T04:32:31;13.32;;;8.23;;
39078;SDS011;24829;49.208;12.080;2024-01-07T04:34:57;13.95;;;7.95;;
39078;SDS011;24829;49.208;12.080;2024-01-07T04:37:25;13.93;;;8.07;;
39078;SDS011;24829;49.208;12.080;2024-01-07T04:39:51;15.65;;;8.38;;
39078;SDS011;24829;49.208;12.080;2024-01-07T04:42:17;14.95;;;8.20;;
39078;SDS011;24829;49.208;12.080;2024-01-07T04:44:43;15.50;;;8.88;;
39078;SDS011;24829;49.208;12.080;2024-01-07T04:47:28;13.27;;;8.18;;
39078;SDS011;24829;49.208;12.080;2024-01-07T04:49:55;16.75;;;8.25;;
39078;SDS011;24829;49.208;12.080;2024-01-07T04:52:24;15.77;;;9.38;;
39078;SDS011;24829;49.208;12.080;2024-01-07T04:54:51;15.48;;;9.10;;
39078;SDS011;24829;49.208;12.080;2024-01-07T04:57:17;16.35;;;9.48;;
39078;SDS011;24829;49.208;12.080;2024-01-07T04:59:43;15.15;;;8.13;;
39078;SDS011;24829;49.208;12.080;2024-01-07T05:02:10;15.00;;;8.45;;
39078;SDS011;24829;49.208;12.080;2024-01-07T05:04:35;14.02;;;8.07;;
39078;SDS011;24829;49.208;12.080;2024-01-07T05:07:01;14.27;;;8.18;;
39078;SDS011;24829;49.208;12.080;2024-01-07T05:09:27;10.93;;;6.47;;
39078;SDS011;24829;49.208;12.080;2024-01-07T05:11:53;8.55;;;4.85;;
39078;SDS011;24829;49.208;12.080;2024-01-07T05:14:18;17.45;;;7.50;;
39078;SDS011;24829;49.208;12.080;2024-01-07T05:16:44;10.60;;;6.55;;
39078;SDS011;24829;49.208;12.080;2024-01-07T05:19:10;9.13;;;6.18;;
39078;SDS011;24829;49.208;12.080;2024-01-07T05:21:35;8.02;;;3.95;;
39078;SDS011;24829;49.208;12.080;2024-01-07T05:24:01;10.27;;;5.53;;
39078;SDS011;24829;49.208;12.080;2024-01-07T05:26:26;10.18;;;5.95;;
39078;SDS011;24829;49.208;12.080;2024-01-07T05:28:52;11.00;;;6.53;;
39078;SDS011;24829;49.208;12.080;2024-01-07T05:31:18;12.85;;;5.68;;
39078;SDS011;24829;49.208;12.080;2024-01-07T05:33:44;10.57;;;6.63;;
39078;SDS011;24829;49.208;12.080;2024-01-07T05:36:11;8.60;;;5.30;;
39078;SDS011;24829;49.208;12.080;2024-01-07T05:38:36;9.18;;;5.07;;
39078;SDS011;24829;49.208;12.080;2024-01-07T05:41:02;10.60;;;5.72;;
39078;SDS011;24829;49.208;12.080;2024-01-07T05:43:28;10.68;;;5.93;;
39078;SDS011;24829;49.208;12.080;2024-01-07T05:45:53;9.98;;;5.80;;
39078;SDS011;24829;49.208;12.080;2024-01-07T05:48:22;11.98;;;5.85;;
39078;SDS011;24829;49.208;12.080;2024-01-07T05:50:48;10.27;;;6.05;;
39078;SDS011;24829;49.208;12.080;2024-01-07T05:53:14;14.90;;;6.70;;
39078;SDS011;24829;49.208;12.080;2024-01-07T05:55:40;10.23;;;5.85;;
39078;SDS011;24829;49.208;12.080;2024-01-07T05:58:05;9.07;;;5.32;;
39078;SDS011;24829;49.208;12.080;2024-01-07T06:00:31;9.95;;;5.43;;
39078;SDS011;24829;49.208;12.080;2024-01-07T06:02:57;9.98;;;5.75;;
39078;SDS011;24829;49.208;12.080;2024-01-07T06:05:22;10.02;;;6.30;;
39078;SDS011;24829;49.208;12.080;2024-01-07T06:07:48;10.13;;;5.82;;
39078;SDS011;24829;49.208;12.080;2024-01-07T06:10:14;7.00;;;3.53;;
39078;SDS011;24829;49.208;12.080;2024-01-07T06:12:40;9.68;;;6.05;;
39078;SDS011;24829;49.208;12.080;2024-01-07T06:15:06;9.38;;;5.47;;
39078;SDS011;24829;49.208;12.080;2024-01-07T06:17:32;8.10;;;5.07;;
39078;SDS011;24829;49.208;12.080;2024-01-07T06:19:57;8.68;;;5.05;;
39078;SDS011;24829;49.208;12.080;2024-01-07T06:22:23;9.95;;;5.03;;
39078;SDS011;24829;49.208;12.080;2024-01-07T06:24:49;10.18;;;5.32;;
39078;SDS011;24829;49.208;12.080;2024-01-07T06:27:14;10.82;;;5.90;;
39078;SDS011;24829;49.208;12.080;2024-01-07T06:29:40;9.07;;;5.50;;
39078;SDS011;24829;49.208;12.080;2024-01-07T06:32:05;11.32;;;5.75;;
39078;SDS011;24829;49.208;12.080;2024-01-07T06:34:31;10.40;;;5.30;;
39078;SDS011;24829;49.208;12.080;2024-01-07T06:36:58;11.43;;;6.15;;
39078;SDS011;24829;49.208;12.080;2024-01-07T06:39:24;10.57;;;6.03;;
39078;SDS011;24829;49.208;12.080;2024-01-07T06:41:52;19.48;;;11.40;;
39078;SDS011;24829;49.208;12.080;2024-01-07T06:44:18;12.15;;;7.15;;
39078;SDS011;24829;49.208;12.080;2024-01-07T06:46:43;17.13;;;10.00;;
39078;SDS011;24829;49.208;12.080;2024-01-07T06:49:09;12.77;;;7.88;;
39078;SDS011;24829;49.208;12.080;2024-01-07T06:51:35;13.32;;;7.57;;
39078;SDS011;24829;49.208;12.080;2024-01-07T06:54:00;17.92;;;9.30;;
39078;SDS011;24829;49.208;12.080;2024-01-07T06:56:26;18.08;;;10.00;;
39078;SDS011;24829;49.208;12.080;2024-01-07T06:58:52;14.20;;;7.50;;
39078;SDS011;24829;49.208;12.080;2024-01-07T07:01:19;17.05;;;10.27;;
39078;SDS011;24829;49.208;12.080;2024-01-07T07:03:46;14.77;;;8.48;;
39078;SDS011;24829;49.208;12.080;2024-01-07T07:06:12;16.15;;;9.05;;
39078;SDS011;24829;49.208;12.080;2024-01-07T07:08:37;14.82;;;8.82;;
39078;SDS011;24829;49.208;12.080;2024-01-07T07:11:03;16.50;;;7.65;;
39078;SDS011;24829;49.208;12.080;2024-01-07T07:13:29;12.02;;;6.53;;
39078;SDS011;24829;49.208;12.080;2024-01-07T07:15:54;14.40;;;8.73;;
39078;SDS011;24829;49.208;12.080;2024-01-07T07:18:20;16.35;;;8.35;;
39078;SDS011;24829;49.208;12.080;2024-01-07T07:20:46;12.30;;;7.13;;
39078;SDS011;24829;49.208;12.080;2024-01-07T07:23:12;11.25;;;6.47;;
39078;SDS011;24829;49.208;12.080;2024-01-07T07:25:38;11.85;;;6.13;;
39078;SDS011;24829;49.208;12.080;2024-01-07T07:28:04;13.32;;;6.30;;
39078;SDS011;24829;49.208;12.080;2024-01-07T07:30:30;13.27;;;6.78;;
39078;SDS011;24829;49.208;12.080;2024-01-07T07:32:55;11.70;;;6.20;;
39078;SDS011;24829;49.208;12.080;2024-01-07T07:35:21;13.38;;;6.95;;
39078;SDS011;24829;49.208;12.080;2024-01-07T07:37:47;10.93;;;5.93;;
39078;SDS011;24829;49.208;12.080;2024-01-07T07:40:12;15.57;;;7.68;;
39078;SDS011;24829;49.208;12.080;2024-01-07T07:42:38;16.35;;;9.25;;
39078;SDS011;24829;49.208;12.080;2024-01-07T07:45:04;14.52;;;8.73;;
39078;SDS011;24829;49.208;12.080;2024-01-07T07:47:31;16.63;;;9.32;;
39078;SDS011;24829;49.208;12.080;2024-01-07T07:49:56;18.60;;;10.52;;
39078;SDS011;24829;49.208;12.080;2024-01-07T07:52:22;14.60;;;7.90;;
39078;SDS011;24829;49.208;12.080;2024-01-07T07:54:51;20.30;;;7.85;;
39078;SDS011;24829;49.208;12.080;2024-01-07T07:57:17;21.77;;;13.77;;
39078;SDS011;24829;49.208;12.080;2024-01-07T07:59:45;11.00;;;6.10;;
39078;SDS011;24829;49.208;12.080;2024-01-07T08:02:11;9.63;;;5.95;;
39078;SDS011;24829;49.208;12.080;2024-01-07T08:04:37;13.93;;;8.93;;
39078;SDS011;24829;49.208;12.080;2024-01-07T08:07:06;15.13;;;8.25;;
39078;SDS011;24829;49.208;12.080;2024-01-07T08:09:31;15.65;;;8.40;;
39078;SDS011;24829;49.208;12.080;2024-01-07T08:11:57;14.82;;;8.27;;
39078;SDS011;24829;49.208;12.080;2024-01-07T08:14:23;16.35;;;10.13;;
39078;SDS011;24829;49.208;12.080;2024-01-07T08:16:49;17.35;;;9.80;;
39078;SDS011;24829;49.208;12.080;2024-01-07T08:19:14;13.70;;;8.18;;
39078;SDS011;24829;49.208;12.080;2024-01-07T08:21:40;13.32;;;7.82;;
39078;SDS011;24829;49.208;12.080;2024-01-07T08:24:06;24.25;;;13.02;;
39078;SDS011;24829;49.208;12.080;2024-01-07T08:26:31;26.60;;;14.15;;
39078;SDS011;24829;49.208;12.080;2024-01-07T08:28:57;18.30;;;10.48;;
39078;SDS011;24829;49.208;12.080;2024-01-07T08:31:23;17.00;;;10.63;;
39078;SDS011;24829;49.208;12.080;2024-01-07T08:33:49;12.73;;;8.27;;
39078;SDS011;24829;49.208;12.080;2024-01-07T08:36:14;13.05;;;6.80;;
39078;SDS011;24829;49.208;12.080;2024-01-07T08:38:40;13.38;;;6.93;;
39078;SDS011;24829;49.208;12.080;2024-01-07T08:41:05;10.88;;;6.28;;
39078;SDS011;24829;49.208;12.080;2024-01-07T08:43:31;11.35;;;6.55;;
39078;SDS011;24829;49.208;12.080;2024-01-07T08:45:57;15.95;;;7.15;;
39078;SDS011;24829;49.208;12.080;2024-01-07T08:48:23;11.85;;;7.10;;
39078;SDS011;24829;49.208;12.080;2024-01-07T08:50:48;10.93;;;6.32;;
39078;SDS011;24829;49.208;12.080;2024-01-07T08:53:15;13.70;;;7.13;;
39078;SDS011;24829;49.208;12.080;2024-01-07T08:55:40;13.85;;;8.13;;
39078;SDS011;24829;49.208;12.080;2024-01-07T08:58:06;12.50;;;8.18;;
39078;SDS011;24829;49.208;12.080;2024-01-07T09:00:32;13.13;;;7.45;;
39078;SDS011;24829;49.208;12.080;2024-01-07T09:02:57;13.90;;;7.03;;
39078;SDS011;24829;49.208;12.080;2024-01-07T09:05:23;16.10;;;7.43;;
39078;SDS011;24829;49.208;12.080;2024-01-07T09:07:51;12.68;;;7.75;;
39078;SDS011;24829;49.208;12.080;2024-01-07T09:10:17;12.52;;;6.90;;
39078;SDS011;24829;49.208;12.080;2024-01-07T09:12:44;13.88;;;7.25;;
39078;SDS011;24829;49.208;12.080;2024-01-07T09:15:09;11.20;;;7.53;;
39078;SDS011;24829;49.208;12.080;2024-01-07T09:17:38;13.35;;;8.02;;
39078;SDS011;24829;49.208;12.080;2024-01-07T09:20:04;13.05;;;6.97;;
39078;SDS011;24829;49.208;12.080;2024-01-07T09:22:32;12.13;;;6.55;;
39078;SDS011;24829;49.208;12.080;2024-01-07T09:24:59;13.93;;;8.25;;
39078;SDS011;24829;49.208;12.080;2024-01-07T09:27:26;14.60;;;8.05;;
39078;SDS011;24829;49.208;12.080;2024-01-07T09:29:51;17.15;;;8.32;;
39078;SDS011;24829;49.208;12.080;2024-01-07T09:32:17;14.40;;;8.90;;
39078;SDS011;24829;49.208;12.080;2024-01-07T09:34:43;15.75;;;8.93;;
39078;SDS011;24829;49.208;12.080;2024-01-07T09:37:08;16.30;;;9.90;;
39078;SDS011;24829;49.208;12.080;2024-01-07T09:39:38;17.95;;;10.52;;
39078;SDS011;24829;49.208;12.080;2024-01-07T09:42:05;12.32;;;7.47;;
39078;SDS011;24829;49.208;12.080;2024-01-07T09:44:37;18.15;;;9.48;;
39078;SDS011;24829;49.208;12.080;2024-01-07T09:47:03;13.77;;;7.80;;
39078;SDS011;24829;49.208;12.080;2024-01-07T09:49:30;12.38;;;5.93;;
39078;SDS011;24829;49.208;12.080;2024-01-07T09:51:58;15.57;;;8.52;;
39078;SDS011;24829;49.208;12.080;2024-01-07T09:54:27;15.05;;;9.02;;
39078;SDS011;24829;49.208;12.080;2024-01-07T09:56:55;14.77;;;8.50;;
39078;SDS011;24829;49.208;12.080;2024-01-07T09:59:30;16.00;;;8.60;;
39078;SDS011;24829;49.208;12.080;2024-01-07T10:01:56;15.48;;;8.75;;
39078;SDS011;24829;49.208;12.080;2024-01-07T10:04:25;13.57;;;8.52;;
39078;SDS011;24829;49.208;12.080;2024-01-07T10:06:52;18.90;;;11.57;;
39078;SDS011;24829;49.208;12.080;2024-01-07T10:09:19;18.58;;;11.13;;
39078;SDS011;24829;49.208;12.080;2024-01-07T10:11:47;21.70;;;10.02;;
39078;SDS011;24829;49.208;12.080;2024-01-07T10:14:12;24.25;;;9.68;;
39078;SDS011;24829;49.208;12.080;2024-01-07T10:16:38;17.33;;;9.55;;
39078;SDS011;24829;49.208;12.080;2024-01-07T10:19:04;17.17;;;10.18;;
39078;SDS011;24829;49.208;12.080;2024-01-07T10:21:30;18.35;;;10.07;;
39078;SDS011;24829;49.208;12.080;2024-01-07T10:24:08;17.80;;;9.73;;
39078;SDS011;24829;49.208;12.080;2024-01-07T10:26:38;19.63;;;10.02;;
39078;SDS011;24829;49.208;12.080;2024-01-07T10:29:04;16.17;;;9.05;;
39078;SDS011;24829;49.208;12.080;2024-01-07T10:31:34;19.42;;;11.32;;
39078;SDS011;24829;49.208;12.080;2024-01-07T10:36:31;16.83;;;9.40;;
39078;SDS011;24829;49.208;12.080;2024-01-07T10:38:57;19.02;;;9.23;;
39078;SDS011;24829;49.208;12.080;2024-01-07T10:41:22;19.35;;;10.10;;
39078;SDS011;24829;49.208;12.080;2024-01-07T10:43:50;16.98;;;10.27;;
39078;SDS011;24829;49.208;12.080;2024-01-07T10:46:15;21.45;;;12.43;;
39078;SDS011;24829;49.208;12.080;2024-01-07T10:48:53;17.02;;;10.90;;
39078;SDS011;24829;49.208;12.080;2024-01-07T10:51:24;20.45;;;10.75;;
39078;SDS011;24829;49.208;12.080;2024-01-07T10:53:52;22.67;;;10.82;;
39078;SDS011;24829;49.208;12.080;2024-01-07T10:56:23;17.25;;;10.50;;
39078;SDS011;24829;49.208;12.080;2024-01-07T10:58:56;18.35;;;11.68;;
39078;SDS011;24829;49.208;12.080;2024-01-07T11:01:22;18.27;;;10.77;;
39078;SDS011;24829;49.208;12.080;2024-01-07T11:03:59;19.40;;;9.68;;
39078;SDS011;24829;49.208;12.080;2024-01-07T11:06:51;16.25;;;9.43;;
39078;SDS011;24829;49.208;12.080;2024-01-07T11:11:58;19.83;;;10.95;;
39078;SDS011;24829;49.208;12.080;2024-01-07T11:14:37;18.42;;;10.00;;
39078;SDS011;24829;49.208;12.080;2024-01-07T11:17:10;17.15;;;9.85;;
39078;SDS011;24829;49.208;12.080;2024-01-07T11:19:37;17.95;;;10.45;;
39078;SDS011;24829;49.208;12.080;2024-01-07T11:24:48;16.73;;;8.05;;
39078;SDS011;24829;49.208;12.080;2024-01-07T11:27:15;17.45;;;9.20;;
39078;SDS011;24829;49.208;12.080;2024-01-07T11:29:41;17.58;;;10.63;;
39078;SDS011;24829;49.208;12.080;2024-01-07T11:32:07;18.42;;;9.45;;
39078;SDS011;24829;49.208;12.080;2024-01-07T11:34:42;18.58;;;10.20;;
39078;SDS011;24829;49.208;12.080;2024-01-07T11:37:11;19.73;;;10.48;;
39078;SDS011;24829;49.208;12.080;2024-01-07T11:39:42;18.80;;;9.65;;
39078;SDS011;24829;49.208;12.080;2024-01-07T11:42:11;19.60;;;10.63;;
39078;SDS011;24829;49.208;12.080;2024-01-07T11:44:37;15.05;;;9.20;;
39078;SDS011;24829;49.208;12.080;2024-01-07T11:47:10;15.45;;;8.50;;
39078;SDS011;24829;49.208;12.080;2024-01-07T11:49:35;19.17;;;10.38;;
39078;SDS011;24829;49.208;12.080;2024-01-07T11:52:01;17.85;;;10.15;;
39078;SDS011;24829;49.208;12.080;2024-01-07T11:54:29;17.65;;;8.93;;
39078;SDS011;24829;49.208;12.080;2024-01-07T11:56:55;15.20;;;8.80;;
39078;SDS011;24829;49.208;12.080;2024-01-07T11:59:22;14.55;;;6.70;;
39078;SDS011;24829;49.208;12.080;2024-01-07T12:01:48;17.50;;;9.07;;
39078;SDS011;24829;49.208;12.080;2024-01-07T12:04:13;19.58;;;9.88;;
39078;SDS011;24829;49.208;12.080;2024-01-07T12:06:39;15.30;;;8.63;;
39078;SDS011;24829;49.208;12.080;2024-01-07T12:09:05;19.05;;;9.00;;
39078;SDS011;24829;49.208;12.080;2024-01-07T12:11:31;19.83;;;8.35;;
39078;SDS011;24829;49.208;12.080;2024-01-07T12:13:57;15.80;;;9.52;;
39078;SDS011;24829;49.208;12.080;2024-01-07T12:16:23;19.35;;;10.52;;
39078;SDS011;24829;49.208;12.080;2024-01-07T12:18:50;18.25;;;9.32;;
39078;SDS011;24829;49.208;12.080;2024-01-07T12:21:21;11.38;;;7.40;;
39078;SDS011;24829;49.208;12.080;2024-01-07T12:23:48;14.43;;;6.85;;
39078;SDS011;24829;49.208;12.080;2024-01-07T12:26:15;17.35;;;7.25;;
39078;SDS011;24829;49.208;12.080;2024-01-07T12:28:41;14.77;;;9.23;;
39078;SDS011;24829;49.208;12.080;2024-01-07T12:31:07;14.15;;;6.50;;
39078;SDS011;24829;49.208;12.080;2024-01-07T12:33:34;15.80;;;7.85;;
39078;SDS011;24829;49.208;12.080;2024-01-07T12:36:02;17.58;;;8.52;;
39078;SDS011;24829;49.208;12.080;2024-01-07T12:38:28;16.05;;;7.93;;
39078;SDS011;24829;49.208;12.080;2024-01-07T12:40:54;15.77;;;7.82;;
39078;SDS011;24829;49.208;12.080;2024-01-07T12:43:20;15.73;;;7.97;;
39078;SDS011;24829;49.208;12.080;2024-01-07T12:45:46;17.60;;;9.85;;
39078;SDS011;24829;49.208;12.080;2024-01-07T12:48:12;14.50;;;7.88;;
39078;SDS011;24829;49.208;12.080;2024-01-07T12:50:38;15.38;;;8.55;;
39078;SDS011;24829;49.208;12.080;2024-01-07T12:53:03;17.80;;;8.80;;
39078;SDS011;24829;49.208;12.080;2024-01-07T12:55:30;16.92;;;9.68;;
39078;SDS011;24829;49.208;12.080;2024-01-07T12:57:56;18.48;;;10.70;;
39078;SDS011;24829;49.208;12.080;2024-01-07T13:00:23;16.08;;;9.57;;
39078;SDS011;24829;49.208;12.080;2024-01-07T13:02:50;16.40;;;9.38;;
39078;SDS011;24829;49.208;12.080;2024-01-07T13:05:16;18.73;;;9.05;;
39078;SDS011;24829;49.208;12.080;2024-01-07T13:07:42;16.45;;;10.07;;
39078;SDS011;24829;49.208;12.080;2024-01-07T13:10:07;23.63;;;11.55;;
39078;SDS011;24829;49.208;12.080;2024-01-07T13:12:34;20.42;;;9.80;;
39078;SDS011;24829;49.208;12.080;2024-01-07T13:15:01;15.45;;;9.52;;
39078;SDS011;24829;49.208;12.080;2024-01-07T13:17:27;22.45;;;10.57;;
39078;SDS011;24829;49.208;12.080;2024-01-07T13:19:55;15.68;;;8.40;;
39078;SDS011;24829;49.208;12.080;2024-01-07T13:22:20;19.90;;;10.90;;
39078;SDS011;24829;49.208;12.080;2024-01-07T13:24:46;16.38;;;9.82;;
39078;SDS011;24829;49.208;12.080;2024-01-07T13:27:12;21.65;;;11.43;;
39078;SDS011;24829;49.208;12.080;2024-01-07T13:29:38;17.85;;;10.07;;
39078;SDS011;24829;49.208;12.080;2024-01-07T13:32:04;21.83;;;10.82;;
39078;SDS011;24829;49.208;12.080;2024-01-07T13:34:30;19.15;;;10.35;;
39078;SDS011;24829;49.208;12.080;2024-01-07T13:36:55;19.92;;;9.90;;
39078;SDS011;24829;49.208;12.080;2024-01-07T13:39:21;21.63;;;10.95;;
39078;SDS011;24829;49.208;12.080;2024-01-07T13:41:47;21.30;;;10.85;;
39078;SDS011;24829;49.208;12.080;2024-01-07T13:44:13;23.63;;;9.85;;
39078;SDS011;24829;49.208;12.080;2024-01-07T13:46:45;18.57;;;9.07;;
39078;SDS011;24829;49.208;12.080;2024-01-07T13:49:11;19.83;;;10.10;;
39078;SDS011;24829;49.208;12.080;2024-01-07T13:51:43;19.55;;;9.82;;
39078;SDS011;24829;49.208;12.080;2024-01-07T13:54:09;17.42;;;9.38;;
39078;SDS011;24829;49.208;12.080;2024-01-07T13:56:43;17.48;;;10.13;;
39078;SDS011;24829;49.208;12.080;2024-01-07T13:59:10;24.23;;;10.68;;
39078;SDS011;24829;49.208;12.080;2024-01-07T14:01:36;17.52;;;9.68;;
39078;SDS011;24829;49.208;12.080;2024-01-07T14:04:02;21.27;;;10.63;;
39078;SDS011;24829;49.208;12.080;2024-01-07T14:06:28;19.38;;;11.07;;
39078;SDS011;24829;49.208;12.080;2024-01-07T14:08:54;24.88;;;11.98;;
39078;SDS011;24829;49.208;12.080;2024-01-07T14:11:20;18.63;;;9.95;;
39078;SDS011;24829;49.208;12.080;2024-01-07T14:13:46;23.27;;;11.23;;
39078;SDS011;24829;49.208;12.080;2024-01-07T14:16:15;22.80;;;11.25;;
39078;SDS011;24829;49.208;12.080;2024-01-07T14:18:40;19.33;;;9.55;;
39078;SDS011;24829;49.208;12.080;2024-01-07T14:21:06;20.83;;;10.25;;